sensor_id;sensor_type;location;lat;lon;timestamp;P1;durP1;ratioP1;P2;durP2;ratioP2
31728;SDS011;18309;43.658;1.312;2022-08-01T00:01:47;3.47;;;1.48;;
31728;SDS011;18309;43.658;1.312;2022-08-01T00:04:13;2.90;;;1.48;;
31728;SDS011;18309;43.658;1.312;2022-08-01T00:06:39;3.72;;;1.33;;
31728;SDS011;18309;43.658;1.312;2022-08-01T00:09:04;1.58;;;1.23;;
31728;SDS011;18309;43.658;1.312;2022-08-01T00:11:30;6.57;;;1.40;;
31728;SDS011;18309;43.658;1.312;2022-08-01T00:13:56;3.40;;;1.40;;
31728;SDS011;18309;43.658;1.312;2022-08-01T00:16:21;7.80;;;1.42;;
31728;SDS011;18309;43.658;1.312;2022-08-01T00:18:50;2.17;;;1.27;;
31728;SDS011;18309;43.658;1.312;2022-08-01T00:21:16;4.35;;;1.30;;
31728;SDS011;18309;43.658;1.312;2022-08-01T00:23:42;2.75;;;1.40;;
31728;SDS011;18309;43.658;1.312;2022-08-01T00:26:10;4.60;;;1.80;;
31728;SDS011;18309;43.658;1.312;2022-08-01T00:28:37;3.22;;;1.20;;
31728;SDS011;18309;43.658;1.312;2022-08-01T00:31:02;5.45;;;1.70;;
31728;SDS011;18309;43.658;1.312;2022-08-01T00:33:28;5.70;;;1.52;;
31728;SDS011;18309;43.658;1.312;2022-08-01T00:35:54;3.45;;;1.85;;
31728;SDS011;18309;43.658;1.312;2022-08-01T00:38:20;3.72;;;1.50;;
31728;SDS011;18309;43.658;1.312;2022-08-01T00:40:46;3.17;;;1.38;;
31728;SDS011;18309;43.658;1.312;2022-08-01T00:43:12;7.05;;;1.60;;
31728;SDS011;18309;43.658;1.312;2022-08-01T00:45:38;4.47;;;1.98;;
31728;SDS011;18309;43.658;1.312;2022-08-01T00:48:03;3.13;;;1.50;;
31728;SDS011;18309;43.658;1.312;2022-08-01T00:50:29;3.60;;;1.60;;
31728;SDS011;18309;43.658;1.312;2022-08-01T00:52:55;2.08;;;1.48;;
31728;SDS011;18309;43.658;1.312;2022-08-01T00:55:22;6.00;;;2.20;;
31728;SDS011;18309;43.658;1.312;2022-08-01T00:57:48;5.38;;;1.92;;
31728;SDS011;18309;43.658;1.312;2022-08-01T01:00:14;3.70;;;1.60;;
31728;SDS011;18309;43.658;1.312;2022-08-01T01:02:40;6.00;;;1.60;;
31728;SDS011;18309;43.658;1.312;2022-08-01T01:05:06;4.45;;;1.80;;
31728;SDS011;18309;43.658;1.312;2022-08-01T01:07:50;4.25;;;2.08;;
31728;SDS011;18309;43.658;1.312;2022-08-01T01:11:04;4.20;;;2.38;;
31728;SDS011;18309;43.658;1.312;2022-08-01T01:16:14;7.82;;;2.40;;
31728;SDS011;18309;43.658;1.312;2022-08-01T01:18:53;5.20;;;2.25;;
31728;SDS011;18309;43.658;1.312;2022-08-01T01:29:48;6.25;;;2.30;;
31728;SDS011;18309;43.658;1.312;2022-08-01T01:34:50;6.10;;;2.28;;
31728;SDS011;18309;43.658;1.312;2022-08-01T01:37:20;4.73;;;2.20;;
31728;SDS011;18309;43.658;1.312;2022-08-01T01:39:48;5.32;;;2.22;;
31728;SDS011;18309;43.658;1.312;2022-08-01T01:42:16;7.57;;;2.35;;
31728;SDS011;18309;43.658;1.312;2022-08-01T01:44:43;4.53;;;2.38;;
31728;SDS011;18309;43.658;1.312;2022-08-01T01:47:11;8.57;;;2.58;;
31728;SDS011;18309;43.658;1.312;2022-08-01T01:49:39;4.25;;;2.20;;
31728;SDS011;18309;43.658;1.312;2022-08-01T01:52:06;5.32;;;2.00;;
31728;SDS011;18309;43.658;1.312;2022-08-01T01:54:35;6.65;;;2.75;;
31728;SDS011;18309;43.658;1.312;2022-08-01T01:57:04;3.70;;;1.95;;
31728;SDS011;18309;43.658;1.312;2022-08-01T01:59:32;5.35;;;2.10;;
31728;SDS011;18309;43.658;1.312;2022-08-01T02:02:01;4.88;;;2.08;;
31728;SDS011;18309;43.658;1.312;2022-08-01T02:04:28;4.00;;;1.92;;
31728;SDS011;18309;43.658;1.312;2022-08-01T02:06:57;5.03;;;2.45;;
31728;SDS011;18309;43.658;1.312;2022-08-01T02:09:24;6.63;;;2.38;;
31728;SDS011;18309;43.658;1.312;2022-08-01T02:11:52;5.35;;;2.75;;
31728;SDS011;18309;43.658;1.312;2022-08-01T02:14:19;6.75;;;2.72;;
31728;SDS011;18309;43.658;1.312;2022-08-01T02:16:47;10.85;;;2.58;;
31728;SDS011;18309;43.658;1.312;2022-08-01T02:19:16;2.80;;;1.83;;
31728;SDS011;18309;43.658;1.312;2022-08-01T02:27:11;8.70;;;2.67;;
31728;SDS011;18309;43.658;1.312;2022-08-01T02:29:41;7.50;;;2.28;;
31728;SDS011;18309;43.658;1.312;2022-08-01T02:34:46;4.13;;;2.13;;
31728;SDS011;18309;43.658;1.312;2022-08-01T02:37:14;9.73;;;2.42;;
31728;SDS011;18309;43.658;1.312;2022-08-01T02:39:41;4.22;;;2.50;;
31728;SDS011;18309;43.658;1.312;2022-08-01T02:42:08;6.25;;;2.45;;
31728;SDS011;18309;43.658;1.312;2022-08-01T02:44:38;7.20;;;2.60;;
31728;SDS011;18309;43.658;1.312;2022-08-01T02:47:07;9.82;;;3.05;;
31728;SDS011;18309;43.658;1.312;2022-08-01T02:49:36;7.82;;;2.35;;
31728;SDS011;18309;43.658;1.312;2022-08-01T02:52:11;4.60;;;2.47;;
31728;SDS011;18309;43.658;1.312;2022-08-01T02:54:39;4.03;;;2.40;;
31728;SDS011;18309;43.658;1.312;2022-08-01T02:57:07;8.77;;;2.75;;
31728;SDS011;18309;43.658;1.312;2022-08-01T02:59:34;11.48;;;2.85;;
31728;SDS011;18309;43.658;1.312;2022-08-01T03:02:03;5.18;;;2.97;;
31728;SDS011;18309;43.658;1.312;2022-08-01T03:04:30;5.85;;;2.35;;
31728;SDS011;18309;43.658;1.312;2022-08-01T03:06:58;4.80;;;2.70;;
31728;SDS011;18309;43.658;1.312;2022-08-01T03:09:28;6.32;;;2.75;;
31728;SDS011;18309;43.658;1.312;2022-08-01T03:11:57;10.10;;;2.35;;
31728;SDS011;18309;43.658;1.312;2022-08-01T03:14:26;3.92;;;2.58;;
31728;SDS011;18309;43.658;1.312;2022-08-01T03:16:53;7.88;;;2.30;;
31728;SDS011;18309;43.658;1.312;2022-08-01T03:19:21;4.60;;;2.65;;
31728;SDS011;18309;43.658;1.312;2022-08-01T03:21:52;4.30;;;2.42;;
31728;SDS011;18309;43.658;1.312;2022-08-01T03:24:20;5.35;;;2.83;;
31728;SDS011;18309;43.658;1.312;2022-08-01T03:26:47;6.00;;;2.75;;
31728;SDS011;18309;43.658;1.312;2022-08-01T03:29:19;7.50;;;2.78;;
31728;SDS011;18309;43.658;1.312;2022-08-01T03:31:51;5.32;;;2.60;;
31728;SDS011;18309;43.658;1.312;2022-08-01T03:34:18;7.40;;;2.70;;
31728;SDS011;18309;43.658;1.312;2022-08-01T03:36:49;5.57;;;2.75;;
31728;SDS011;18309;43.658;1.312;2022-08-01T03:39:22;6.82;;;2.83;;
31728;SDS011;18309;43.658;1.312;2022-08-01T03:41:54;3.50;;;2.33;;
31728;SDS011;18309;43.658;1.312;2022-08-01T03:44:24;5.28;;;2.53;;
31728;SDS011;18309;43.658;1.312;2022-08-01T03:46:58;5.97;;;3.03;;
31728;SDS011;18309;43.658;1.312;2022-08-01T03:52:08;9.75;;;3.05;;
31728;SDS011;18309;43.658;1.312;2022-08-01T03:54:38;7.25;;;2.65;;
31728;SDS011;18309;43.658;1.312;2022-08-01T03:57:08;4.72;;;2.28;;
31728;SDS011;18309;43.658;1.312;2022-08-01T03:59:35;7.43;;;2.40;;
31728;SDS011;18309;43.658;1.312;2022-08-01T04:02:03;6.75;;;2.80;;
31728;SDS011;18309;43.658;1.312;2022-08-01T04:04:35;6.18;;;2.85;;
31728;SDS011;18309;43.658;1.312;2022-08-01T04:07:05;10.68;;;2.83;;
31728;SDS011;18309;43.658;1.312;2022-08-01T04:09:45;5.18;;;2.60;;
31728;SDS011;18309;43.658;1.312;2022-08-01T04:12:11;8.48;;;2.80;;
31728;SDS011;18309;43.658;1.312;2022-08-01T04:14:36;11.10;;;3.15;;
31728;SDS011;18309;43.658;1.312;2022-08-01T04:17:02;7.15;;;2.63;;
31728;SDS011;18309;43.658;1.312;2022-08-01T04:19:28;5.18;;;3.08;;
31728;SDS011;18309;43.658;1.312;2022-08-01T04:21:54;6.78;;;2.67;;
31728;SDS011;18309;43.658;1.312;2022-08-01T04:24:19;7.80;;;2.72;;
31728;SDS011;18309;43.658;1.312;2022-08-01T04:26:47;6.88;;;2.90;;
31728;SDS011;18309;43.658;1.312;2022-08-01T04:29:14;6.53;;;2.50;;
31728;SDS011;18309;43.658;1.312;2022-08-01T04:31:43;4.78;;;2.60;;
31728;SDS011;18309;43.658;1.312;2022-08-01T04:34:11;5.93;;;2.65;;
31728;SDS011;18309;43.658;1.312;2022-08-01T04:36:40;6.78;;;2.20;;
31728;SDS011;18309;43.658;1.312;2022-08-01T04:39:07;6.38;;;2.60;;
31728;SDS011;18309;43.658;1.312;2022-08-01T04:41:34;5.45;;;2.83;;
31728;SDS011;18309;43.658;1.312;2022-08-01T04:44:02;8.70;;;2.70;;
31728;SDS011;18309;43.658;1.312;2022-08-01T04:46:29;5.50;;;2.33;;
31728;SDS011;18309;43.658;1.312;2022-08-01T04:48:57;4.68;;;2.55;;
31728;SDS011;18309;43.658;1.312;2022-08-01T04:51:23;7.47;;;2.40;;
31728;SDS011;18309;43.658;1.312;2022-08-01T04:53:49;5.05;;;2.25;;
31728;SDS011;18309;43.658;1.312;2022-08-01T04:56:18;5.40;;;2.33;;
31728;SDS011;18309;43.658;1.312;2022-08-01T04:58:45;4.05;;;2.40;;
31728;SDS011;18309;43.658;1.312;2022-08-01T05:01:12;2.60;;;2.20;;
31728;SDS011;18309;43.658;1.312;2022-08-01T05:03:38;5.20;;;2.50;;
31728;SDS011;18309;43.658;1.312;2022-08-01T05:06:04;6.32;;;2.42;;
31728;SDS011;18309;43.658;1.312;2022-08-01T05:08:29;11.18;;;2.53;;
31728;SDS011;18309;43.658;1.312;2022-08-01T05:10:55;11.45;;;2.80;;
31728;SDS011;18309;43.658;1.312;2022-08-01T05:13:21;7.10;;;3.00;;
31728;SDS011;18309;43.658;1.312;2022-08-01T05:15:47;12.80;;;3.20;;
31728;SDS011;18309;43.658;1.312;2022-08-01T05:18:12;10.45;;;3.72;;
31728;SDS011;18309;43.658;1.312;2022-08-01T05:20:38;7.57;;;3.17;;
31728;SDS011;18309;43.658;1.312;2022-08-01T05:23:05;10.05;;;3.03;;
31728;SDS011;18309;43.658;1.312;2022-08-01T05:25:31;8.57;;;2.75;;
31728;SDS011;18309;43.658;1.312;2022-08-01T05:27:57;8.13;;;3.15;;
31728;SDS011;18309;43.658;1.312;2022-08-01T05:30:22;17.77;;;3.88;;
31728;SDS011;18309;43.658;1.312;2022-08-01T05:32:48;11.88;;;3.35;;
31728;SDS011;18309;43.658;1.312;2022-08-01T05:35:14;18.33;;;3.83;;
31728;SDS011;18309;43.658;1.312;2022-08-01T05:37:39;19.77;;;3.53;;
31728;SDS011;18309;43.658;1.312;2022-08-01T05:40:05;10.07;;;3.33;;
31728;SDS011;18309;43.658;1.312;2022-08-01T05:42:31;14.57;;;4.53;;
31728;SDS011;18309;43.658;1.312;2022-08-01T05:44:57;12.60;;;3.78;;
31728;SDS011;18309;43.658;1.312;2022-08-01T05:47:23;7.45;;;4.13;;
31728;SDS011;18309;43.658;1.312;2022-08-01T05:49:48;10.00;;;3.33;;
31728;SDS011;18309;43.658;1.312;2022-08-01T05:52:14;8.88;;;3.92;;
31728;SDS011;18309;43.658;1.312;2022-08-01T05:54:40;18.77;;;4.35;;
31728;SDS011;18309;43.658;1.312;2022-08-01T05:57:05;13.98;;;4.43;;
31728;SDS011;18309;43.658;1.312;2022-08-01T05:59:31;24.70;;;4.55;;
31728;SDS011;18309;43.658;1.312;2022-08-01T06:01:57;22.45;;;5.50;;
31728;SDS011;18309;43.658;1.312;2022-08-01T06:04:23;15.05;;;4.75;;
31728;SDS011;18309;43.658;1.312;2022-08-01T06:06:49;7.63;;;4.70;;
31728;SDS011;18309;43.658;1.312;2022-08-01T06:09:14;18.20;;;4.90;;
31728;SDS011;18309;43.658;1.312;2022-08-01T06:11:40;8.70;;;4.60;;
31728;SDS011;18309;43.658;1.312;2022-08-01T06:14:11;11.38;;;5.38;;
31728;SDS011;18309;43.658;1.312;2022-08-01T06:16:37;10.40;;;4.55;;
31728;SDS011;18309;43.658;1.312;2022-08-01T06:19:03;8.73;;;4.93;;
31728;SDS011;18309;43.658;1.312;2022-08-01T06:21:28;20.98;;;4.97;;
31728;SDS011;18309;43.658;1.312;2022-08-01T06:23:54;13.00;;;5.47;;
31728;SDS011;18309;43.658;1.312;2022-08-01T06:26:20;13.35;;;5.75;;
31728;SDS011;18309;43.658;1.312;2022-08-01T06:28:46;12.70;;;5.40;;
31728;SDS011;18309;43.658;1.312;2022-08-01T06:31:12;11.88;;;4.95;;
31728;SDS011;18309;43.658;1.312;2022-08-01T06:33:38;15.15;;;5.20;;
31728;SDS011;18309;43.658;1.312;2022-08-01T06:36:04;16.20;;;5.30;;
31728;SDS011;18309;43.658;1.312;2022-08-01T06:38:30;12.48;;;5.30;;
31728;SDS011;18309;43.658;1.312;2022-08-01T06:40:56;12.68;;;5.55;;
31728;SDS011;18309;43.658;1.312;2022-08-01T06:43:22;14.05;;;6.35;;
31728;SDS011;18309;43.658;1.312;2022-08-01T06:45:48;16.33;;;6.15;;
31728;SDS011;18309;43.658;1.312;2022-08-01T06:48:14;15.65;;;6.13;;
31728;SDS011;18309;43.658;1.312;2022-08-01T06:50:40;11.25;;;5.45;;
31728;SDS011;18309;43.658;1.312;2022-08-01T06:53:05;13.77;;;6.50;;
31728;SDS011;18309;43.658;1.312;2022-08-01T06:55:31;20.55;;;5.95;;
31728;SDS011;18309;43.658;1.312;2022-08-01T06:57:57;11.82;;;6.30;;
31728;SDS011;18309;43.658;1.312;2022-08-01T07:00:23;13.38;;;6.20;;
31728;SDS011;18309;43.658;1.312;2022-08-01T07:02:51;15.93;;;6.65;;
31728;SDS011;18309;43.658;1.312;2022-08-01T07:05:19;14.15;;;6.78;;
31728;SDS011;18309;43.658;1.312;2022-08-01T07:07:46;12.07;;;6.50;;
31728;SDS011;18309;43.658;1.312;2022-08-01T07:10:11;14.35;;;6.20;;
31728;SDS011;18309;43.658;1.312;2022-08-01T07:12:37;12.63;;;5.93;;
31728;SDS011;18309;43.658;1.312;2022-08-01T07:15:06;9.55;;;6.22;;
31728;SDS011;18309;43.658;1.312;2022-08-01T07:17:38;20.38;;;7.43;;
31728;SDS011;18309;43.658;1.312;2022-08-01T07:20:05;13.98;;;6.03;;
31728;SDS011;18309;43.658;1.312;2022-08-01T07:22:32;11.10;;;6.15;;
31728;SDS011;18309;43.658;1.312;2022-08-01T07:24:58;14.10;;;6.15;;
31728;SDS011;18309;43.658;1.312;2022-08-01T07:27:23;11.07;;;5.88;;
31728;SDS011;18309;43.658;1.312;2022-08-01T07:29:49;14.57;;;6.68;;
31728;SDS011;18309;43.658;1.312;2022-08-01T07:32:15;12.35;;;6.45;;
31728;SDS011;18309;43.658;1.312;2022-08-01T07:34:40;12.65;;;6.60;;
31728;SDS011;18309;43.658;1.312;2022-08-01T07:37:06;15.38;;;6.40;;
31728;SDS011;18309;43.658;1.312;2022-08-01T07:39:32;14.13;;;5.95;;
31728;SDS011;18309;43.658;1.312;2022-08-01T07:41:57;11.35;;;5.60;;
31728;SDS011;18309;43.658;1.312;2022-08-01T07:44:23;12.57;;;6.10;;
31728;SDS011;18309;43.658;1.312;2022-08-01T07:46:49;12.05;;;6.45;;
31728;SDS011;18309;43.658;1.312;2022-08-01T07:49:14;12.07;;;6.30;;
31728;SDS011;18309;43.658;1.312;2022-08-01T07:51:40;13.93;;;7.40;;
31728;SDS011;18309;43.658;1.312;2022-08-01T07:54:05;10.90;;;5.88;;
31728;SDS011;18309;43.658;1.312;2022-08-01T07:56:32;18.60;;;6.25;;
31728;SDS011;18309;43.658;1.312;2022-08-01T07:58:58;14.07;;;6.28;;
31728;SDS011;18309;43.658;1.312;2022-08-01T08:01:23;10.43;;;5.72;;
31728;SDS011;18309;43.658;1.312;2022-08-01T08:03:49;11.75;;;5.60;;
31728;SDS011;18309;43.658;1.312;2022-08-01T08:06:15;8.27;;;5.25;;
31728;SDS011;18309;43.658;1.312;2022-08-01T08:08:40;15.68;;;5.65;;
31728;SDS011;18309;43.658;1.312;2022-08-01T08:11:06;7.65;;;5.18;;
31728;SDS011;18309;43.658;1.312;2022-08-01T08:13:32;14.80;;;5.32;;
31728;SDS011;18309;43.658;1.312;2022-08-01T08:15:58;10.18;;;5.40;;
31728;SDS011;18309;43.658;1.312;2022-08-01T08:18:24;11.30;;;5.85;;
31728;SDS011;18309;43.658;1.312;2022-08-01T08:20:50;11.07;;;5.40;;
31728;SDS011;18309;43.658;1.312;2022-08-01T08:23:16;11.15;;;5.40;;
31728;SDS011;18309;43.658;1.312;2022-08-01T08:26:00;9.77;;;4.65;;
31728;SDS011;18309;43.658;1.312;2022-08-01T08:28:26;11.65;;;6.00;;
31728;SDS011;18309;43.658;1.312;2022-08-01T08:30:51;14.05;;;5.80;;
31728;SDS011;18309;43.658;1.312;2022-08-01T08:33:19;11.98;;;5.70;;
31728;SDS011;18309;43.658;1.312;2022-08-01T08:35:45;14.60;;;5.85;;
31728;SDS011;18309;43.658;1.312;2022-08-01T08:38:11;12.25;;;5.57;;
31728;SDS011;18309;43.658;1.312;2022-08-01T08:40:37;13.23;;;5.47;;
31728;SDS011;18309;43.658;1.312;2022-08-01T08:43:06;11.52;;;5.15;;
31728;SDS011;18309;43.658;1.312;2022-08-01T08:45:32;11.48;;;4.90;;
31728;SDS011;18309;43.658;1.312;2022-08-01T08:47:58;15.85;;;5.30;;
31728;SDS011;18309;43.658;1.312;2022-08-01T08:50:25;10.00;;;5.22;;
31728;SDS011;18309;43.658;1.312;2022-08-01T08:52:53;10.45;;;4.85;;
31728;SDS011;18309;43.658;1.312;2022-08-01T08:55:20;9.95;;;5.53;;
31728;SDS011;18309;43.658;1.312;2022-08-01T08:57:46;12.40;;;5.75;;
31728;SDS011;18309;43.658;1.312;2022-08-01T09:00:13;14.85;;;5.60;;
31728;SDS011;18309;43.658;1.312;2022-08-01T09:02:46;10.70;;;4.88;;
31728;SDS011;18309;43.658;1.312;2022-08-01T09:05:14;163.68;;;11.98;;
31728;SDS011;18309;43.658;1.312;2022-08-01T09:07:40;214.18;;;16.63;;
31728;SDS011;18309;43.658;1.312;2022-08-01T09:10:06;24.92;;;6.63;;
31728;SDS011;18309;43.658;1.312;2022-08-01T09:12:34;284.13;;;23.83;;
31728;SDS011;18309;43.658;1.312;2022-08-01T09:15:01;131.70;;;13.07;;
31728;SDS011;18309;43.658;1.312;2022-08-01T09:17:27;15.85;;;5.82;;
31728;SDS011;18309;43.658;1.312;2022-08-01T09:19:56;13.90;;;4.97;;
31728;SDS011;18309;43.658;1.312;2022-08-01T09:22:22;13.52;;;5.85;;
31728;SDS011;18309;43.658;1.312;2022-08-01T09:25:05;8.32;;;4.97;;
31728;SDS011;18309;43.658;1.312;2022-08-01T09:27:33;8.95;;;5.18;;
31728;SDS011;18309;43.658;1.312;2022-08-01T09:30:20;8.98;;;5.10;;
31728;SDS011;18309;43.658;1.312;2022-08-01T09:32:56;10.48;;;5.47;;
31728;SDS011;18309;43.658;1.312;2022-08-01T09:35:32;8.60;;;4.88;;
31728;SDS011;18309;43.658;1.312;2022-08-01T09:38:11;67.78;;;6.38;;
31728;SDS011;18309;43.658;1.312;2022-08-01T09:40:55;29.90;;;5.70;;
31728;SDS011;18309;43.658;1.312;2022-08-01T09:43:22;29.75;;;5.78;;
31728;SDS011;18309;43.658;1.312;2022-08-01T09:45:49;41.53;;;7.10;;
31728;SDS011;18309;43.658;1.312;2022-08-01T09:48:16;56.28;;;7.72;;
31728;SDS011;18309;43.658;1.312;2022-08-01T09:50:43;70.78;;;9.75;;
31728;SDS011;18309;43.658;1.312;2022-08-01T09:53:10;11.20;;;4.93;;
31728;SDS011;18309;43.658;1.312;2022-08-01T09:55:37;8.75;;;5.85;;
31728;SDS011;18309;43.658;1.312;2022-08-01T09:58:04;14.88;;;6.05;;
31728;SDS011;18309;43.658;1.312;2022-08-01T10:00:30;10.93;;;5.40;;
31728;SDS011;18309;43.658;1.312;2022-08-01T10:03:00;10.73;;;5.78;;
31728;SDS011;18309;43.658;1.312;2022-08-01T10:05:50;11.27;;;5.90;;
31728;SDS011;18309;43.658;1.312;2022-08-01T10:08:52;9.55;;;5.47;;
31728;SDS011;18309;43.658;1.312;2022-08-01T10:11:18;7.80;;;4.95;;
31728;SDS011;18309;43.658;1.312;2022-08-01T10:13:46;10.43;;;5.20;;
31728;SDS011;18309;43.658;1.312;2022-08-01T10:16:13;9.10;;;5.72;;
31728;SDS011;18309;43.658;1.312;2022-08-01T10:18:40;13.50;;;5.10;;
31728;SDS011;18309;43.658;1.312;2022-08-01T10:21:08;8.55;;;4.72;;
31728;SDS011;18309;43.658;1.312;2022-08-01T10:23:35;8.15;;;4.97;;
31728;SDS011;18309;43.658;1.312;2022-08-01T10:26:07;14.40;;;5.70;;
31728;SDS011;18309;43.658;1.312;2022-08-01T10:28:35;10.48;;;5.35;;
31728;SDS011;18309;43.658;1.312;2022-08-01T10:31:02;10.43;;;5.18;;
31728;SDS011;18309;43.658;1.312;2022-08-01T10:33:28;10.45;;;6.07;;
31728;SDS011;18309;43.658;1.312;2022-08-01T10:35:55;18.60;;;5.50;;
31728;SDS011;18309;43.658;1.312;2022-08-01T10:38:22;17.08;;;5.55;;
31728;SDS011;18309;43.658;1.312;2022-08-01T10:40:48;8.90;;;5.43;;
31728;SDS011;18309;43.658;1.312;2022-08-01T10:43:14;7.60;;;5.15;;
31728;SDS011;18309;43.658;1.312;2022-08-01T10:45:42;8.18;;;5.93;;
31728;SDS011;18309;43.658;1.312;2022-08-01T10:53:20;8.93;;;4.75;;
31728;SDS011;18309;43.658;1.312;2022-08-01T10:55:48;6.82;;;4.47;;
31728;SDS011;18309;43.658;1.312;2022-08-01T10:58:20;8.43;;;5.88;;
31728;SDS011;18309;43.658;1.312;2022-08-01T11:00:47;11.43;;;5.00;;
31728;SDS011;18309;43.658;1.312;2022-08-01T11:03:12;14.55;;;5.72;;
31728;SDS011;18309;43.658;1.312;2022-08-01T11:05:38;17.13;;;6.28;;
31728;SDS011;18309;43.658;1.312;2022-08-01T11:08:10;21.60;;;6.30;;
31728;SDS011;18309;43.658;1.312;2022-08-01T11:10:47;9.52;;;5.88;;
31728;SDS011;18309;43.658;1.312;2022-08-01T11:13:13;7.72;;;5.00;;
31728;SDS011;18309;43.658;1.312;2022-08-01T11:15:39;9.40;;;5.47;;
31728;SDS011;18309;43.658;1.312;2022-08-01T11:21:00;26.65;;;5.85;;
31728;SDS011;18309;43.658;1.312;2022-08-01T11:23:30;27.10;;;5.35;;
31728;SDS011;18309;43.658;1.312;2022-08-01T11:26:13;29.40;;;6.78;;
31728;SDS011;18309;43.658;1.312;2022-08-01T11:28:39;34.33;;;5.72;;
31728;SDS011;18309;43.658;1.312;2022-08-01T11:38:39;21.92;;;4.43;;
31728;SDS011;18309;43.658;1.312;2022-08-01T11:41:22;16.92;;;5.00;;
31728;SDS011;18309;43.658;1.312;2022-08-01T11:43:56;9.25;;;4.57;;
31728;SDS011;18309;43.658;1.312;2022-08-01T11:52:08;9.13;;;4.45;;
31728;SDS011;18309;43.658;1.312;2022-08-01T11:57:29;9.43;;;4.50;;
31728;SDS011;18309;43.658;1.312;2022-08-01T12:00:00;11.32;;;4.38;;
31728;SDS011;18309;43.658;1.312;2022-08-01T12:02:29;12.18;;;4.43;;
31728;SDS011;18309;43.658;1.312;2022-08-01T12:07:25;16.10;;;4.30;;
31728;SDS011;18309;43.658;1.312;2022-08-01T12:09:57;7.95;;;4.10;;
31728;SDS011;18309;43.658;1.312;2022-08-01T12:12:25;9.80;;;4.20;;
31728;SDS011;18309;43.658;1.312;2022-08-01T12:14:58;8.07;;;4.43;;
31728;SDS011;18309;43.658;1.312;2022-08-01T12:17:36;10.65;;;4.50;;
31728;SDS011;18309;43.658;1.312;2022-08-01T12:20:06;8.17;;;4.57;;
31728;SDS011;18309;43.658;1.312;2022-08-01T12:22:34;6.43;;;4.07;;
31728;SDS011;18309;43.658;1.312;2022-08-01T12:25:13;7.45;;;4.13;;
31728;SDS011;18309;43.658;1.312;2022-08-01T12:30:11;7.28;;;4.03;;
31728;SDS011;18309;43.658;1.312;2022-08-01T12:32:40;8.20;;;3.97;;
31728;SDS011;18309;43.658;1.312;2022-08-01T12:35:08;8.55;;;3.67;;
31728;SDS011;18309;43.658;1.312;2022-08-01T12:37:39;5.78;;;3.35;;
31728;SDS011;18309;43.658;1.312;2022-08-01T12:40:13;7.68;;;3.55;;
31728;SDS011;18309;43.658;1.312;2022-08-01T12:42:44;10.00;;;3.50;;
31728;SDS011;18309;43.658;1.312;2022-08-01T12:45:13;7.07;;;2.92;;
31728;SDS011;18309;43.658;1.312;2022-08-01T12:47:40;5.05;;;2.30;;
31728;SDS011;18309;43.658;1.312;2022-08-01T12:50:08;4.50;;;1.95;;
31728;SDS011;18309;43.658;1.312;2022-08-01T12:52:42;7.43;;;2.20;;
31728;SDS011;18309;43.658;1.312;2022-08-01T12:55:10;6.32;;;2.55;;
31728;SDS011;18309;43.658;1.312;2022-08-01T12:57:41;6.45;;;2.90;;
31728;SDS011;18309;43.658;1.312;2022-08-01T13:00:24;9.93;;;2.80;;
31728;SDS011;18309;43.658;1.312;2022-08-01T13:03:04;12.05;;;2.80;;
31728;SDS011;18309;43.658;1.312;2022-08-01T13:10:43;3.95;;;2.55;;
31728;SDS011;18309;43.658;1.312;2022-08-01T13:13:10;6.53;;;2.95;;
31728;SDS011;18309;43.658;1.312;2022-08-01T13:15:37;5.65;;;3.20;;
31728;SDS011;18309;43.658;1.312;2022-08-01T13:18:27;10.57;;;3.00;;
31728;SDS011;18309;43.658;1.312;2022-08-01T13:21:11;7.40;;;2.90;;
31728;SDS011;18309;43.658;1.312;2022-08-01T13:23:40;13.30;;;3.30;;
31728;SDS011;18309;43.658;1.312;2022-08-01T13:26:07;3.75;;;2.63;;
31728;SDS011;18309;43.658;1.312;2022-08-01T13:28:33;6.68;;;2.65;;
31728;SDS011;18309;43.658;1.312;2022-08-01T13:31:06;4.50;;;2.47;;
31728;SDS011;18309;43.658;1.312;2022-08-01T13:33:45;4.60;;;2.35;;
31728;SDS011;18309;43.658;1.312;2022-08-01T13:36:12;6.13;;;2.70;;
31728;SDS011;18309;43.658;1.312;2022-08-01T13:38:39;3.80;;;2.33;;
31728;SDS011;18309;43.658;1.312;2022-08-01T13:41:24;8.40;;;2.67;;
31728;SDS011;18309;43.658;1.312;2022-08-01T13:43:51;3.05;;;2.20;;
31728;SDS011;18309;43.658;1.312;2022-08-01T13:46:16;5.13;;;2.30;;
31728;SDS011;18309;43.658;1.312;2022-08-01T13:48:43;5.60;;;2.65;;
31728;SDS011;18309;43.658;1.312;2022-08-01T13:51:08;2.60;;;1.90;;
31728;SDS011;18309;43.658;1.312;2022-08-01T13:53:35;10.05;;;2.25;;
31728;SDS011;18309;43.658;1.312;2022-08-01T13:56:01;2.92;;;1.83;;
31728;SDS011;18309;43.658;1.312;2022-08-01T13:58:26;4.90;;;2.05;;
31728;SDS011;18309;43.658;1.312;2022-08-01T14:00:53;5.45;;;2.40;;
31728;SDS011;18309;43.658;1.312;2022-08-01T14:03:20;8.00;;;2.17;;
31728;SDS011;18309;43.658;1.312;2022-08-01T14:05:46;5.38;;;2.50;;
31728;SDS011;18309;43.658;1.312;2022-08-01T14:08:12;3.97;;;2.08;;
31728;SDS011;18309;43.658;1.312;2022-08-01T14:10:38;4.90;;;1.92;;
31728;SDS011;18309;43.658;1.312;2022-08-01T14:13:03;6.65;;;2.10;;
31728;SDS011;18309;43.658;1.312;2022-08-01T14:15:29;6.80;;;2.05;;
31728;SDS011;18309;43.658;1.312;2022-08-01T14:17:56;7.13;;;1.90;;
31728;SDS011;18309;43.658;1.312;2022-08-01T14:20:22;5.82;;;2.20;;
31728;SDS011;18309;43.658;1.312;2022-08-01T14:22:48;4.35;;;2.00;;
31728;SDS011;18309;43.658;1.312;2022-08-01T14:25:14;4.65;;;2.30;;
31728;SDS011;18309;43.658;1.312;2022-08-01T14:27:40;4.05;;;1.92;;
31728;SDS011;18309;43.658;1.312;2022-08-01T14:30:07;4.60;;;2.25;;
31728;SDS011;18309;43.658;1.312;2022-08-01T14:32:33;3.53;;;1.88;;
31728;SDS011;18309;43.658;1.312;2022-08-01T14:35:04;4.65;;;1.80;;
31728;SDS011;18309;43.658;1.312;2022-08-01T14:37:31;6.82;;;2.17;;
31728;SDS011;18309;43.658;1.312;2022-08-01T14:39:57;5.50;;;2.20;;
31728;SDS011;18309;43.658;1.312;2022-08-01T14:42:24;5.90;;;2.30;;
31728;SDS011;18309;43.658;1.312;2022-08-01T14:44:50;3.63;;;2.20;;
31728;SDS011;18309;43.658;1.312;2022-08-01T14:47:16;4.22;;;2.13;;
31728;SDS011;18309;43.658;1.312;2022-08-01T14:49:42;6.75;;;2.15;;
31728;SDS011;18309;43.658;1.312;2022-08-01T14:52:07;5.90;;;2.50;;
31728;SDS011;18309;43.658;1.312;2022-08-01T14:54:33;2.13;;;1.90;;
31728;SDS011;18309;43.658;1.312;2022-08-01T14:56:59;4.07;;;2.10;;
31728;SDS011;18309;43.658;1.312;2022-08-01T14:59:24;5.05;;;2.00;;
31728;SDS011;18309;43.658;1.312;2022-08-01T15:01:50;2.90;;;1.90;;
31728;SDS011;18309;43.658;1.312;2022-08-01T15:04:16;3.53;;;1.92;;
31728;SDS011;18309;43.658;1.312;2022-08-01T15:06:42;5.93;;;1.90;;
31728;SDS011;18309;43.658;1.312;2022-08-01T15:09:08;5.45;;;2.33;;
31728;SDS011;18309;43.658;1.312;2022-08-01T15:11:35;3.85;;;1.85;;
31728;SDS011;18309;43.658;1.312;2022-08-01T15:14:01;14.65;;;2.58;;
31728;SDS011;18309;43.658;1.312;2022-08-01T15:16:45;3.40;;;1.80;;
31728;SDS011;18309;43.658;1.312;2022-08-01T15:19:11;5.60;;;1.88;;
31728;SDS011;18309;43.658;1.312;2022-08-01T15:21:37;2.33;;;1.58;;
31728;SDS011;18309;43.658;1.312;2022-08-01T15:24:03;2.88;;;1.52;;
31728;SDS011;18309;43.658;1.312;2022-08-01T15:26:28;4.00;;;1.48;;
31728;SDS011;18309;43.658;1.312;2022-08-01T15:28:54;3.15;;;1.30;;
31728;SDS011;18309;43.658;1.312;2022-08-01T15:31:20;8.48;;;1.65;;
31728;SDS011;18309;43.658;1.312;2022-08-01T15:33:46;3.78;;;1.70;;
31728;SDS011;18309;43.658;1.312;2022-08-01T15:36:11;10.32;;;1.55;;
31728;SDS011;18309;43.658;1.312;2022-08-01T15:38:37;5.72;;;2.00;;
31728;SDS011;18309;43.658;1.312;2022-08-01T15:41:03;2.70;;;1.50;;
31728;SDS011;18309;43.658;1.312;2022-08-01T15:43:28;5.50;;;1.60;;
31728;SDS011;18309;43.658;1.312;2022-08-01T15:45:54;3.08;;;1.38;;
31728;SDS011;18309;43.658;1.312;2022-08-01T15:48:20;2.22;;;1.20;;